Time;durP1;ratioP1;P1;durP2;ratioP2;P2;SDS_P1;SDS_P2;PMS_P1;PMS_P2;Temp;Humidity;BMP_temperature;BMP_pressure;BME280_temperature;BME280_humidity;BME280_pressure;Samples;Min_cycle;Max_cycle;Signal;HPM_P1;HPM_P2
2023/12/18 00:01:41;;;;;;;21.90;12.55;;;;;;;-143.54;100.00;59916.91;5096125;28;20382;-80
2023/12/18 00:04:07;;;;;;;22.92;12.18;;;;;;;-143.54;100.00;59916.91;5102923;28;20038;-81
2023/12/18 00:06:33;;;;;;;19.95;12.02;;;;;;;-143.54;100.00;59916.91;5103277;28;20019;-80
2023/12/18 00:08:58;;;;;;;20.73;11.48;;;;;;;-143.54;100.00;59916.91;5094842;28;20040;-81
2023/12/18 00:11:23;;;;;;;21.02;12.95;;;;;;;-143.54;100.00;59916.91;5098308;28;20024;-81
2023/12/18 00:13:49;;;;;;;20.90;12.80;;;;;;;-143.54;100.00;59916.91;5096479;28;20081;-81
2023/12/18 00:16:14;;;;;;;20.08;12.48;;;;;;;-143.54;100.00;59916.91;5095845;28;20039;-80
2023/12/18 00:18:39;;;;;;;18.65;12.02;;;;;;;-143.54;100.00;59916.91;5098977;28;20057;-81
2023/12/18 00:21:05;;;;;;;17.98;11.23;;;;;;;-143.54;100.00;59916.91;5094433;28;20028;-81
2023/12/18 00:23:30;;;;;;;20.23;12.07;;;;;;;-143.54;100.00;59916.91;5100685;28;20664;-80
2023/12/18 00:25:55;;;;;;;21.05;11.80;;;;;;;-143.54;100.00;59916.91;5094959;28;20043;-81
2023/12/18 00:28:20;;;;;;;19.90;12.13;;;;;;;-143.54;100.00;59916.91;5101094;28;20536;-80
2023/12/18 00:30:47;;;;;;;22.30;12.15;;;;;;;-143.54;100.00;59916.91;5095405;28;20111;-81
2023/12/18 00:33:12;;;;;;;20.58;12.57;;;;;;;-143.54;100.00;59916.91;5097711;28;20463;-81
2023/12/18 00:35:38;;;;;;;21.23;12.52;;;;;;;-143.54;100.00;59916.91;5093354;28;20028;-81
2023/12/18 00:38:03;;;;;;;22.23;12.68;;;;;;;-143.54;100.00;59916.91;5100959;28;20044;-81
2023/12/18 00:40:28;;;;;;;21.20;12.88;;;;;;;-143.54;100.00;59916.91;5106656;28;20036;-81
2023/12/18 00:42:54;;;;;;;20.58;13.25;;;;;;;-143.54;100.00;59916.91;5096541;28;20066;-81
2023/12/18 00:45:19;;;;;;;22.80;13.27;;;;;;;-143.54;100.00;59916.91;5101973;28;20499;-81
2023/12/18 00:47:44;;;;;;;26.10;13.85;;;;;;;-143.54;100.00;59916.91;5101059;28;20023;-80
2023/12/18 00:50:10;;;;;;;21.35;13.10;;;;;;;-143.54;100.00;59916.91;5098813;28;20515;-80
2023/12/18 00:52:39;;;;;;;22.00;13.38;;;;;;;-143.54;100.00;59916.91;5099433;28;20034;-81
2023/12/18 00:55:05;;;;;;;29.13;14.20;;;;;;;-143.54;100.00;59916.91;5100166;28;20035;-80
2023/12/18 00:57:31;;;;;;;25.15;13.05;;;;;;;-143.54;100.00;59916.91;5103247;28;20032;-80
2023/12/18 00:59:56;;;;;;;20.95;13.73;;;;;;;-143.54;100.00;59916.91;5100021;28;20107;-81
2023/12/18 01:02:21;;;;;;;22.83;13.93;;;;;;;-143.54;100.00;59916.91;5108523;28;20070;-80
2023/12/18 01:04:48;;;;;;;24.45;13.93;;;;;;;-143.54;100.00;59916.91;5099160;28;20039;-80
2023/12/18 01:07:13;;;;;;;25.08;13.98;;;;;;;-143.54;100.00;59916.91;5101084;28;20371;-81
2023/12/18 01:09:38;;;;;;;25.92;14.30;;;;;;;-143.54;100.00;59916.91;5098345;28;20024;-81
2023/12/18 01:12:04;;;;;;;23.60;13.77;;;;;;;-143.54;100.00;59916.91;5101586;28;20032;-81
2023/12/18 01:14:29;;;;;;;24.40;14.57;;;;;;;-143.54;100.00;59916.91;5100998;28;20102;-81
2023/12/18 01:16:55;;;;;;;26.65;15.15;;;;;;;-143.54;100.00;59916.91;5105492;28;20053;-80
2023/12/18 01:19:21;;;;;;;26.08;14.65;;;;;;;-143.54;100.00;59916.91;5098750;28;20543;-80
2023/12/18 01:21:47;;;;;;;24.45;14.77;;;;;;;-143.54;100.00;59916.91;5111695;28;20429;-81
2023/12/18 01:24:12;;;;;;;25.60;15.27;;;;;;;-143.54;100.00;59916.91;5097038;28;20024;-80
2023/12/18 01:26:38;;;;;;;26.20;15.00;;;;;;;-143.54;100.00;59916.91;5102372;28;20039;-81
2023/12/18 01:29:04;;;;;;;28.52;15.35;;;;;;;-143.54;100.00;59916.91;5099054;28;20482;-81
2023/12/18 01:31:29;;;;;;;26.45;14.98;;;;;;;-143.54;100.00;59916.91;5102382;28;20024;-80
2023/12/18 01:33:55;;;;;;;22.15;14.82;;;;;;;-143.54;100.00;59916.91;5105719;28;20019;-80
2023/12/18 01:36:21;;;;;;;24.88;14.75;;;;;;;-143.54;100.00;59916.91;5103522;28;20044;-81
2023/12/18 01:38:46;;;;;;;28.25;15.25;;;;;;;-143.54;100.00;59916.91;5105551;28;20146;-81
2023/12/18 01:41:12;;;;;;;26.42;15.52;;;;;;;-143.54;100.00;59916.91;5101961;28;20089;-80
2023/12/18 01:43:37;;;;;;;29.88;15.43;;;;;;;-143.54;100.00;59916.91;5108720;28;20056;-80
2023/12/18 01:46:03;;;;;;;31.20;16.45;;;;;;;-143.54;100.00;59916.91;5103009;28;20476;-80
2023/12/18 01:48:30;;;;;;;29.25;16.35;;;;;;;-143.54;100.00;59916.91;5103534;28;20035;-80
2023/12/18 01:50:58;;;;;;;27.33;17.17;;;;;;;-143.54;100.00;59916.91;5101511;28;20046;-80
2023/12/18 01:53:26;;;;;;;26.90;16.67;;;;;;;-143.54;100.00;59916.91;5102192;28;20035;-81
2023/12/18 01:55:52;;;;;;;27.95;14.80;;;;;;;-143.54;100.00;59916.91;5104195;28;20047;-80
2023/12/18 01:58:17;;;;;;;27.63;16.42;;;;;;;-143.54;100.00;59916.91;5099471;28;20073;-81
2023/12/18 02:00:43;;;;;;;28.58;16.65;;;;;;;-143.54;100.00;59916.91;5097539;28;20366;-80
2023/12/18 02:03:10;;;;;;;27.77;16.02;;;;;;;-143.54;100.00;59916.91;5102978;28;20471;-81
2023/12/18 02:05:37;;;;;;;28.50;16.00;;;;;;;-143.54;100.00;59916.91;5097772;28;20030;-80
2023/12/18 02:08:03;;;;;;;29.33;15.85;;;;;;;-143.54;100.00;59916.91;5102340;28;20028;-80
2023/12/18 02:10:29;;;;;;;27.65;16.25;;;;;;;-143.54;100.00;59916.91;5103074;28;20032;-81
2023/12/18 02:12:55;;;;;;;30.85;16.58;;;;;;;-143.54;100.00;59916.91;5102857;28;20028;-80
2023/12/18 02:15:20;;;;;;;29.30;16.80;;;;;;;-143.54;100.00;59916.91;5096071;28;20032;-80
2023/12/18 02:17:45;;;;;;;30.10;16.48;;;;;;;-143.54;100.00;59916.91;5100493;28;20025;-80
2023/12/18 02:20:11;;;;;;;27.88;16.38;;;;;;;-143.54;100.00;59916.91;5097244;28;20054;-80
2023/12/18 02:22:48;;;;;;;28.67;16.40;;;;;;;-143.54;100.00;59916.91;5107402;28;20466;-80
2023/12/18 02:25:17;;;;;;;31.50;16.48;;;;;;;-143.54;100.00;59916.91;5096941;28;20036;-80
2023/12/18 02:27:46;;;;;;;27.63;16.02;;;;;;;-143.54;100.00;59916.91;5106901;28;20095;-80
2023/12/18 02:30:16;;;;;;;30.88;16.40;;;;;;;-143.54;100.00;59916.91;5096879;28;20023;-80
2023/12/18 02:32:42;;;;;;;25.98;15.20;;;;;;;-143.54;100.00;59916.91;5090138;28;20099;-80
2023/12/18 02:35:07;;;;;;;33.97;17.52;;;;;;;-143.54;100.00;59916.91;5105620;28;20433;-80
2023/12/18 02:37:33;;;;;;;30.98;17.05;;;;;;;-143.54;100.00;59916.91;5100906;28;20042;-80
2023/12/18 02:39:58;;;;;;;30.25;15.40;;;;;;;-143.54;100.00;59916.91;5102008;28;20020;-80
2023/12/18 02:42:23;;;;;;;31.30;16.85;;;;;;;-143.54;100.00;59916.91;5100794;28;20016;-80
2023/12/18 02:44:49;;;;;;;29.98;16.30;;;;;;;-143.54;100.00;59916.91;5101158;28;20036;-80
2023/12/18 02:47:14;;;;;;;28.67;16.38;;;;;;;-143.54;100.00;59916.91;5102225;28;20120;-80
2023/12/18 02:49:39;;;;;;;32.72;16.48;;;;;;;-143.54;100.00;59916.91;5103672;28;20086;-80
2023/12/18 02:52:05;;;;;;;31.30;17.25;;;;;;;-143.54;100.00;59916.91;5103969;28;20039;-80
2023/12/18 02:54:30;;;;;;;35.00;17.00;;;;;;;-143.54;100.00;59916.91;5104766;28;20058;-81
2023/12/18 02:56:55;;;;;;;28.77;15.90;;;;;;;-143.54;100.00;59916.91;5097369;28;20031;-80
2023/12/18 02:59:21;;;;;;;30.13;16.98;;;;;;;-143.54;100.00;59916.91;5100336;28;20039;-80
2023/12/18 03:01:46;;;;;;;29.50;17.13;;;;;;;-143.54;100.00;59916.91;5098301;28;20028;-80
2023/12/18 03:04:13;;;;;;;32.92;16.15;;;;;;;-143.54;100.00;59916.91;5097892;28;20379;-80
2023/12/18 03:06:38;;;;;;;34.15;16.83;;;;;;;-143.54;100.00;59916.91;5103503;28;20030;-80
2023/12/18 03:09:03;;;;;;;31.95;16.27;;;;;;;-143.54;100.00;59916.91;5104721;28;20111;-80
2023/12/18 03:11:29;;;;;;;31.90;17.58;;;;;;;-143.54;100.00;59916.91;5096810;28;20383;-80
2023/12/18 03:13:54;;;;;;;29.98;17.52;;;;;;;-143.54;100.00;59916.91;5099874;28;20044;-80
2023/12/18 03:16:20;;;;;;;31.52;17.40;;;;;;;-143.54;100.00;59916.91;5100748;28;20016;-81
2023/12/18 03:18:45;;;;;;;31.98;16.98;;;;;;;-143.54;100.00;59916.91;5095518;28;20115;-80
2023/12/18 03:21:11;;;;;;;31.42;17.38;;;;;;;-143.54;100.00;59916.91;5101580;28;20027;-80
2023/12/18 03:23:37;;;;;;;32.50;17.27;;;;;;;-143.54;100.00;59916.91;5097376;28;20034;-80
2023/12/18 03:26:02;;;;;;;29.33;17.20;;;;;;;-143.54;100.00;59916.91;5102127;28;20030;-80
2023/12/18 03:28:28;;;;;;;32.97;16.80;;;;;;;-143.54;100.00;59916.91;5094176;28;20036;-80
2023/12/18 03:30:53;;;;;;;32.15;18.00;;;;;;;-143.54;100.00;59916.91;5098006;28;20386;-80
2023/12/18 03:33:19;;;;;;;34.80;18.23;;;;;;;-143.54;100.00;59916.91;5099644;28;20051;-80
2023/12/18 03:35:45;;;;;;;28.52;17.40;;;;;;;-143.54;100.00;59916.91;5101258;28;20497;-80
2023/12/18 03:38:12;;;;;;;28.65;17.25;;;;;;;-143.54;100.00;59916.91;5099189;28;20051;-80
2023/12/18 03:40:37;;;;;;;30.65;17.10;;;;;;;-143.54;100.00;59916.91;5100102;28;20031;-80
2023/12/18 03:43:02;;;;;;;35.05;18.50;;;;;;;-143.54;100.00;59916.91;5100333;28;20023;-80
2023/12/18 03:45:28;;;;;;;29.35;17.48;;;;;;;-143.54;100.00;59916.91;5082436;28;20069;-81
2023/12/18 03:47:53;;;;;;;33.78;18.83;;;;;;;-143.54;100.00;59916.91;5098859;28;20024;-80
2023/12/18 03:50:20;;;;;;;34.63;17.77;;;;;;;-143.54;100.00;59916.91;5102322;28;20032;-80
2023/12/18 03:52:45;;;;;;;29.85;17.70;;;;;;;-143.54;100.00;59916.91;5098532;28;20131;-80
2023/12/18 03:55:10;;;;;;;32.38;17.88;;;;;;;-143.54;100.00;59916.91;5098188;28;20119;-80
2023/12/18 03:57:36;;;;;;;34.28;18.50;;;;;;;-143.54;100.00;59916.91;5099858;28;20106;-81
2023/12/18 04:00:01;;;;;;;35.72;18.27;;;;;;;-143.54;100.00;59916.91;5102664;28;20462;-81
2023/12/18 04:02:26;;;;;;;37.50;18.92;;;;;;;-143.54;100.00;59916.91;5097895;28;20438;-80
2023/12/18 04:04:54;;;;;;;37.33;18.25;;;;;;;-143.54;100.00;59916.91;5099910;28;20035;-80
2023/12/18 04:07:20;;;;;;;31.75;17.63;;;;;;;-143.54;100.00;59916.91;5096971;28;20047;-81
2023/12/18 04:09:46;;;;;;;33.47;19.60;;;;;;;-143.54;100.00;59916.91;5108389;28;20028;-80
2023/12/18 04:12:11;;;;;;;32.58;18.35;;;;;;;-143.54;100.00;59916.91;5100732;28;20032;-80
2023/12/18 04:14:37;;;;;;;37.90;18.10;;;;;;;-143.54;100.00;59916.91;5099961;28;20028;-80
2023/12/18 04:17:02;;;;;;;36.13;18.60;;;;;;;-143.54;100.00;59916.91;5098645;28;20028;-80
2023/12/18 04:19:27;;;;;;;31.88;18.23;;;;;;;-143.54;100.00;59916.91;5095770;28;20066;-80
2023/12/18 04:21:53;;;;;;;29.67;17.75;;;;;;;-143.54;100.00;59916.91;5098022;28;20038;-80
2023/12/18 04:24:18;;;;;;;38.10;18.58;;;;;;;-143.54;100.00;59916.91;5095490;28;20078;-80
2023/12/18 04:26:43;;;;;;;32.53;17.90;;;;;;;-143.54;100.00;59916.91;5097358;28;20024;-80
2023/12/18 04:29:09;;;;;;;31.98;17.63;;;;;;;-143.54;100.00;59916.91;5102257;28;20070;-80
2023/12/18 04:31:34;;;;;;;33.63;17.83;;;;;;;-143.54;100.00;59916.91;5102319;28;20028;-80
2023/12/18 04:33:59;;;;;;;30.75;17.55;;;;;;;-143.54;100.00;59916.91;5098613;28;20914;-80
2023/12/18 04:36:26;;;;;;;35.53;19.45;;;;;;;-143.54;100.00;59916.91;5102248;28;20032;-81
2023/12/18 04:38:51;;;;;;;34.75;19.02;;;;;;;-143.54;100.00;59916.91;5101322;28;20024;-80
2023/12/18 04:41:20;;;;;;;33.75;18.58;;;;;;;-143.54;100.00;59916.91;5101645;28;20393;-80
2023/12/18 04:43:46;;;;;;;45.50;18.75;;;;;;;-143.54;100.00;59916.91;5101571;28;20062;-80
2023/12/18 04:46:11;;;;;;;31.48;17.65;;;;;;;-143.54;100.00;59916.91;5097817;28;20047;-80
2023/12/18 04:48:37;;;;;;;32.58;17.60;;;;;;;-143.54;100.00;59916.91;5106438;28;20089;-80
2023/12/18 04:51:02;;;;;;;33.97;17.98;;;;;;;-143.54;100.00;59916.91;5101990;28;20077;-80
2023/12/18 04:53:28;;;;;;;32.90;18.73;;;;;;;-143.54;100.00;59916.91;5105438;28;20027;-80
2023/12/18 04:55:53;;;;;;;36.75;18.02;;;;;;;-143.54;100.00;59916.91;5098483;28;20089;-80
2023/12/18 04:58:19;;;;;;;36.10;18.30;;;;;;;-143.54;100.00;59916.91;5106131;28;20042;-80
2023/12/18 05:00:44;;;;;;;35.95;18.58;;;;;;;-143.54;100.00;59916.91;5101071;28;20099;-80
2023/12/18 05:03:09;;;;;;;32.42;17.60;;;;;;;-143.54;100.00;59916.91;5105903;28;20364;-80
2023/12/18 05:05:35;;;;;;;31.23;17.38;;;;;;;-143.54;100.00;59916.91;5100816;28;20099;-80
2023/12/18 05:08:00;;;;;;;35.65;18.27;;;;;;;-143.54;100.00;59916.91;5106949;28;20463;-80
2023/12/18 05:10:25;;;;;;;30.70;17.80;;;;;;;-143.54;100.00;59916.91;5101063;28;20040;-80
2023/12/18 05:12:50;;;;;;;40.72;19.33;;;;;;;-143.54;100.00;59916.91;5107304;28;20028;-80
2023/12/18 05:15:16;;;;;;;34.50;17.58;;;;;;;-143.54;100.00;59916.91;5106502;28;20023;-80
2023/12/18 05:17:41;;;;;;;36.78;19.30;;;;;;;-143.54;100.00;59916.91;5103056;28;20063;-80
2023/12/18 05:20:08;;;;;;;36.13;18.83;;;;;;;-143.54;100.00;59916.91;5104161;28;20031;-80
2023/12/18 05:22:34;;;;;;;34.22;17.98;;;;;;;-143.54;100.00;59916.91;5097882;28;20031;-80
2023/12/18 05:24:59;;;;;;;35.75;18.42;;;;;;;-143.54;100.00;59916.91;5102858;28;20384;-80
2023/12/18 05:27:25;;;;;;;35.72;18.83;;;;;;;-143.54;100.00;59916.91;5101375;28;20030;-80
2023/12/18 05:29:50;;;;;;;36.20;18.38;;;;;;;-143.54;100.00;59916.91;5097355;28;20387;-80
2023/12/18 05:32:15;;;;;;;43.40;19.42;;;;;;;-143.54;100.00;59916.91;5108614;28;20036;-80
2023/12/18 05:34:41;;;;;;;37.05;18.48;;;;;;;-143.54;100.00;59916.91;5098028;28;20031;-80
2023/12/18 05:37:06;;;;;;;37.78;19.45;;;;;;;-143.54;100.00;59916.91;5102202;28;20032;-80
2023/12/18 05:39:32;;;;;;;32.88;18.30;;;;;;;-143.54;100.00;59916.91;5100629;28;20023;-80
2023/12/18 05:41:57;;;;;;;36.03;18.33;;;;;;;-143.54;100.00;59916.91;5099338;28;20025;-80
2023/12/18 05:44:22;;;;;;;38.30;19.70;;;;;;;-143.54;100.00;59916.91;5107154;28;20081;-80
2023/12/18 05:46:48;;;;;;;31.40;19.52;;;;;;;-143.54;100.00;59916.91;5103054;28;20048;-80
2023/12/18 05:49:13;;;;;;;34.40;17.98;;;;;;;-143.54;100.00;59916.91;5105257;28;20463;-80
2023/12/18 05:51:38;;;;;;;38.60;18.80;;;;;;;-143.54;100.00;59916.91;5081034;28;20052;-80
2023/12/18 05:54:04;;;;;;;35.60;18.67;;;;;;;-143.54;100.00;59916.91;5099310;28;20479;-80
2023/12/18 05:56:29;;;;;;;37.65;19.00;;;;;;;-143.54;100.00;59916.91;5102848;28;20118;-80
2023/12/18 05:58:55;;;;;;;32.90;18.63;;;;;;;-143.54;100.00;59916.91;5102139;28;20055;-80
2023/12/18 06:01:21;;;;;;;37.55;18.83;;;;;;;-143.54;100.00;59916.91;5099790;28;20475;-81
2023/12/18 06:03:46;;;;;;;30.50;17.70;;;;;;;-143.54;100.00;59916.91;5107835;28;20058;-80
2023/12/18 06:06:12;;;;;;;34.60;18.10;;;;;;;-143.54;100.00;59916.91;5102936;28;20030;-80
2023/12/18 06:08:37;;;;;;;35.30;18.38;;;;;;;-143.54;100.00;59916.91;5104404;28;20122;-80
2023/12/18 06:11:03;;;;;;;33.83;18.25;;;;;;;-143.54;100.00;59916.91;5096426;28;20030;-80
2023/12/18 06:13:29;;;;;;;33.15;18.00;;;;;;;-143.54;100.00;59916.91;5100301;28;20035;-80
2023/12/18 06:15:54;;;;;;;34.20;18.38;;;;;;;-143.54;100.00;59916.91;5108993;28;20389;-80
2023/12/18 06:18:20;;;;;;;33.60;17.58;;;;;;;-143.54;100.00;59916.91;5095231;28;20032;-80
2023/12/18 06:20:45;;;;;;;31.35;18.27;;;;;;;-143.54;100.00;59916.91;5104657;28;20038;-80
2023/12/18 06:23:10;;;;;;;34.28;17.40;;;;;;;-143.54;100.00;59916.91;5094992;28;20027;-80
2023/12/18 06:25:36;;;;;;;29.73;17.75;;;;;;;-143.54;100.00;59916.91;5097530;28;20032;-80
2023/12/18 06:28:01;;;;;;;34.47;19.27;;;;;;;-143.54;100.00;59916.91;5101418;28;20036;-81
2023/12/18 06:30:26;;;;;;;36.40;18.23;;;;;;;-143.54;100.00;59916.91;5099278;28;20096;-80
2023/12/18 06:32:51;;;;;;;39.08;18.02;;;;;;;-143.54;100.00;59916.91;5097522;28;20430;-81
2023/12/18 06:35:17;;;;;;;44.45;19.67;;;;;;;-143.54;100.00;59916.91;5098441;28;20031;-80
2023/12/18 06:37:43;;;;;;;32.75;18.13;;;;;;;-143.54;100.00;59916.91;5099187;28;20495;-81
2023/12/18 06:40:08;;;;;;;35.03;17.08;;;;;;;-143.54;100.00;59916.91;5096310;28;20046;-81
2023/12/18 06:42:33;;;;;;;37.10;18.33;;;;;;;-143.54;100.00;59916.91;5102798;28;20046;-80
2023/12/18 06:44:59;;;;;;;36.53;19.38;;;;;;;-143.54;100.00;59916.91;5099341;28;20490;-81
2023/12/18 06:47:24;;;;;;;36.80;18.67;;;;;;;-143.54;100.00;59916.91;5102929;28;20028;-80
2023/12/18 06:49:49;;;;;;;37.35;19.15;;;;;;;-143.54;100.00;59916.91;5083578;28;20475;-81
2023/12/18 06:52:15;;;;;;;37.53;18.95;;;;;;;-143.54;100.00;59916.91;5098571;28;20521;-81
2023/12/18 06:54:40;;;;;;;36.97;18.83;;;;;;;-143.54;100.00;59916.91;5104769;28;20063;-80
2023/12/18 06:57:06;;;;;;;32.28;18.88;;;;;;;-143.54;100.00;59916.91;5098573;28;20024;-80
2023/12/18 06:59:31;;;;;;;37.70;19.67;;;;;;;-143.54;100.00;59916.91;5103402;28;20444;-80
2023/12/18 07:01:56;;;;;;;38.95;19.70;;;;;;;-143.54;100.00;59916.91;5100461;28;20042;-80
2023/12/18 07:04:22;;;;;;;37.30;19.42;;;;;;;-143.54;100.00;59916.91;5103526;28;20119;-80
2023/12/18 07:06:47;;;;;;;37.17;18.42;;;;;;;-143.54;100.00;59916.91;5101067;28;20034;-80
2023/12/18 07:09:12;;;;;;;34.70;18.35;;;;;;;-143.54;100.00;59916.91;5099482;28;20070;-80
2023/12/18 07:11:37;;;;;;;33.28;18.65;;;;;;;-143.54;100.00;59916.91;5107240;28;20036;-80
2023/12/18 07:14:03;;;;;;;35.88;18.63;;;;;;;-143.54;100.00;59916.91;5099216;28;20043;-80
2023/12/18 07:16:28;;;;;;;33.47;18.13;;;;;;;-143.54;100.00;59916.91;5094348;28;20055;-80
2023/12/18 07:18:55;;;;;;;34.53;19.13;;;;;;;-143.54;100.00;59916.91;5104107;28;20473;-81
2023/12/18 07:21:20;;;;;;;38.20;18.90;;;;;;;-143.54;100.00;59916.91;5099435;28;20084;-81
2023/12/18 07:23:46;;;;;;;35.95;18.95;;;;;;;-143.54;100.00;59916.91;5101150;28;20024;-81
2023/12/18 07:26:13;;;;;;;39.45;19.70;;;;;;;-143.54;100.00;59916.91;5096060;28;20089;-80
2023/12/18 07:28:42;;;;;;;43.42;19.92;;;;;;;-143.54;100.00;59916.91;5104146;28;20467;-81
2023/12/18 07:31:08;;;;;;;36.25;19.30;;;;;;;-143.54;100.00;59916.91;5098370;28;20032;-80
2023/12/18 07:33:35;;;;;;;35.28;19.48;;;;;;;-143.54;100.00;59916.91;5092410;28;20055;-81
2023/12/18 07:36:01;;;;;;;35.85;18.90;;;;;;;-143.54;100.00;59916.91;5092577;28;20371;-81
2023/12/18 07:38:26;;;;;;;36.15;17.95;;;;;;;-143.54;100.00;59916.91;5099594;28;20027;-80
2023/12/18 07:40:51;;;;;;;34.20;18.73;;;;;;;-143.54;100.00;59916.91;5095899;28;20020;-80
2023/12/18 07:43:16;;;;;;;33.50;18.95;;;;;;;-143.54;100.00;59916.91;5096731;28;20056;-81
2023/12/18 07:45:42;;;;;;;40.22;20.52;;;;;;;-143.54;100.00;59916.91;5098518;28;20039;-81
2023/12/18 07:48:07;;;;;;;35.20;18.73;;;;;;;-143.54;100.00;59916.91;5102162;28;20031;-81
2023/12/18 07:50:32;;;;;;;39.25;19.27;;;;;;;-143.54;100.00;59916.91;5099319;28;20034;-80
2023/12/18 07:52:58;;;;;;;36.63;19.30;;;;;;;-143.54;100.00;59916.91;5099327;28;20024;-81
2023/12/18 07:55:23;;;;;;;40.28;19.23;;;;;;;-143.54;100.00;59916.91;5095579;28;20040;-81
2023/12/18 07:57:49;;;;;;;41.75;19.52;;;;;;;-143.54;100.00;59916.91;5096537;28;20119;-81
2023/12/18 08:00:14;;;;;;;38.97;19.33;;;;;;;-143.54;100.00;59916.91;5101209;28;20032;-81
2023/12/18 08:02:40;;;;;;;40.80;19.17;;;;;;;-143.54;100.00;59916.91;5094440;28;20041;-81
2023/12/18 08:05:05;;;;;;;37.42;19.35;;;;;;;-143.54;100.00;59916.91;5092612;28;20351;-81
2023/12/18 08:07:31;;;;;;;37.15;18.77;;;;;;;-143.54;100.00;59916.91;5097236;28;20035;-81
2023/12/18 08:09:56;;;;;;;35.17;18.15;;;;;;;-143.54;100.00;59916.91;5098886;28;20063;-81
2023/12/18 08:12:22;;;;;;;35.42;19.60;;;;;;;-143.54;100.00;59916.91;5096153;28;20024;-80
2023/12/18 08:14:47;;;;;;;36.75;19.55;;;;;;;-143.54;100.00;59916.91;5097898;28;20032;-81
2023/12/18 08:17:15;;;;;;;35.80;17.45;;;;;;;-143.54;100.00;59916.91;5100013;28;20514;-81
2023/12/18 08:19:46;;;;;;;34.08;18.98;;;;;;;-143.54;100.00;59916.91;5099574;28;20472;-81
2023/12/18 08:22:11;;;;;;;41.80;19.58;;;;;;;-143.54;100.00;59916.91;5099485;28;20034;-81
2023/12/18 08:24:36;;;;;;;39.03;19.85;;;;;;;-143.54;100.00;59916.91;5097858;28;20027;-81
2023/12/18 08:27:02;;;;;;;38.92;19.15;;;;;;;-143.54;100.00;59916.91;5100703;28;20479;-81
2023/12/18 08:29:29;;;;;;;38.97;19.35;;;;;;;-143.54;100.00;59916.91;5095934;28;20123;-81
2023/12/18 08:31:54;;;;;;;38.50;19.73;;;;;;;-143.54;100.00;59916.91;5097436;28;20020;-80
2023/12/18 08:34:21;;;;;;;32.42;18.30;;;;;;;-143.54;100.00;59916.91;5100882;28;20360;-81
2023/12/18 08:36:46;;;;;;;30.65;18.55;;;;;;;-143.54;100.00;59916.91;5097795;28;20062;-80
2023/12/18 08:39:11;;;;;;;37.13;18.98;;;;;;;-143.54;100.00;59916.91;5107164;28;20039;-81
2023/12/18 08:41:41;;;;;;;39.08;18.52;;;;;;;-143.54;100.00;59916.91;5098230;28;20032;-81
2023/12/18 08:44:07;;;;;;;41.90;19.42;;;;;;;-143.54;100.00;59916.91;5100134;28;20163;-81
2023/12/18 08:46:33;;;;;;;35.67;17.95;;;;;;;-143.54;100.00;59916.91;5098979;28;20027;-80
2023/12/18 08:48:58;;;;;;;34.38;18.55;;;;;;;-143.54;100.00;59916.91;5103984;28;20020;-81
2023/12/18 08:51:24;;;;;;;38.90;19.83;;;;;;;-143.54;100.00;59916.91;5098048;28;20031;-80
2023/12/18 08:53:49;;;;;;;34.00;18.48;;;;;;;-143.54;100.00;59916.91;5099091;28;20031;-81
2023/12/18 08:56:14;;;;;;;34.58;18.15;;;;;;;-143.54;100.00;59916.91;5095555;28;20031;-81
2023/12/18 08:58:40;;;;;;;32.05;17.50;;;;;;;-143.54;100.00;59916.91;5099492;28;20035;-81
2023/12/18 09:01:06;;;;;;;32.70;18.38;;;;;;;-143.54;100.00;59916.91;5098928;28;20722;-81
2023/12/18 09:03:35;;;;;;;33.20;18.10;;;;;;;-143.54;100.00;59916.91;5101102;28;20153;-81
2023/12/18 09:06:02;;;;;;;37.92;18.42;;;;;;;-143.54;100.00;59916.91;5090009;28;20047;-81
2023/12/18 09:08:28;;;;;;;35.63;18.02;;;;;;;-143.54;100.00;59916.91;5101829;28;20030;-81
2023/12/18 09:10:53;;;;;;;34.10;18.38;;;;;;;-143.54;100.00;59916.91;5086321;28;20024;-81
2023/12/18 09:13:18;;;;;;;32.40;17.10;;;;;;;-143.54;100.00;59916.91;5102382;28;20360;-81
2023/12/18 09:15:44;;;;;;;31.35;18.20;;;;;;;-143.54;100.00;59916.91;5100011;28;20031;-81
2023/12/18 09:18:09;;;;;;;31.88;17.80;;;;;;;-143.54;100.00;59916.91;5095164;28;20449;-81
2023/12/18 09:20:35;;;;;;;36.92;18.58;;;;;;;-143.54;100.00;59916.91;5111767;28;20023;-81
2023/12/18 09:23:00;;;;;;;38.38;18.05;;;;;;;-143.54;100.00;59916.91;5098182;28;20093;-81
2023/12/18 09:25:25;;;;;;;32.00;17.08;;;;;;;-143.54;100.00;59916.91;5100742;28;20494;-81
2023/12/18 09:27:50;;;;;;;36.70;18.13;;;;;;;-143.54;100.00;59916.91;5103139;28;20032;-81
2023/12/18 09:30:16;;;;;;;33.75;16.88;;;;;;;-143.54;100.00;59916.91;5097879;28;20024;-81
2023/12/18 09:32:41;;;;;;;35.35;17.90;;;;;;;-143.54;100.00;59916.91;5106736;28;20032;-81
2023/12/18 09:35:07;;;;;;;32.65;18.40;;;;;;;-143.54;100.00;59916.91;5096187;28;20028;-82
2023/12/18 09:37:32;;;;;;;35.53;17.92;;;;;;;-143.54;100.00;59916.91;5104202;28;20093;-83
2023/12/18 09:39:57;;;;;;;31.45;17.95;;;;;;;-143.54;100.00;59916.91;5100758;28;20040;-83
2023/12/18 09:42:23;;;;;;;32.45;17.65;;;;;;;-143.54;100.00;59916.91;5102764;28;20475;-82
2023/12/18 09:44:48;;;;;;;31.23;17.35;;;;;;;-143.54;100.00;59916.91;5108007;28;20400;-82
2023/12/18 09:47:13;;;;;;;35.03;18.70;;;;;;;-143.54;100.00;59916.91;5099945;28;20027;-82
2023/12/18 09:49:39;;;;;;;30.83;16.95;;;;;;;-143.54;100.00;59916.91;5108217;28;20031;-82
2023/12/18 09:52:08;;;;;;;33.30;17.58;;;;;;;-143.54;100.00;59916.91;5102276;28;20027;-82
2023/12/18 09:54:34;;;;;;;36.63;17.33;;;;;;;-143.54;100.00;59916.91;5096861;28;20070;-82
2023/12/18 09:57:02;;;;;;;37.08;17.98;;;;;;;-143.54;100.00;59916.91;5099233;28;20084;-82
2023/12/18 09:59:27;;;;;;;31.75;17.45;;;;;;;-143.54;100.00;59916.91;5102733;28;20455;-83
2023/12/18 10:01:54;;;;;;;32.15;17.58;;;;;;;-143.54;100.00;59916.91;5101218;28;20153;-82
2023/12/18 10:04:19;;;;;;;29.33;16.90;;;;;;;-143.54;100.00;59916.91;5102208;28;20028;-82
2023/12/18 10:06:44;;;;;;;36.05;18.45;;;;;;;-143.54;100.00;59916.91;5097656;28;20415;-82
2023/12/18 10:09:13;;;;;;;34.60;18.30;;;;;;;-143.54;100.00;59916.91;5100948;28;20129;-82
2023/12/18 10:11:41;;;;;;;31.88;17.98;;;;;;;-143.54;100.00;59916.91;5105507;28;20036;-82
2023/12/18 10:14:06;;;;;;;32.05;17.02;;;;;;;-143.54;100.00;59916.91;5102768;28;20379;-83
2023/12/18 10:16:32;;;;;;;31.45;17.77;;;;;;;-143.54;100.00;59916.91;5103755;28;20012;-83
2023/12/18 10:18:57;;;;;;;33.85;17.85;;;;;;;-143.54;100.00;59916.91;5101292;28;20039;-83
2023/12/18 10:21:23;;;;;;;35.70;17.23;;;;;;;-143.54;100.00;59916.91;5099354;28;20020;-83
2023/12/18 10:23:51;;;;;;;30.67;17.38;;;;;;;-143.54;100.00;59916.91;5100337;28;20045;-83
2023/12/18 10:26:16;;;;;;;28.95;17.70;;;;;;;-143.54;100.00;59916.91;5101229;28;20031;-82
2023/12/18 10:28:42;;;;;;;31.88;17.58;;;;;;;-143.54;100.00;59916.91;5106186;28;20035;-83
2023/12/18 10:31:09;;;;;;;30.30;17.38;;;;;;;-143.54;100.00;59916.91;5102085;28;20032;-82
2023/12/18 10:33:34;;;;;;;29.67;17.38;;;;;;;-143.54;100.00;59916.91;5087965;28;20431;-83
2023/12/18 10:36:00;;;;;;;31.85;15.45;;;;;;;-143.54;100.00;59916.91;5100516;28;20027;-82
2023/12/18 10:38:29;;;;;;;34.25;17.58;;;;;;;-143.54;100.00;59916.91;5102401;28;20028;-82
2023/12/18 10:40:59;;;;;;;35.00;17.55;;;;;;;-143.54;100.00;59916.91;5101066;28;20020;-82
2023/12/18 10:43:25;;;;;;;34.10;16.98;;;;;;;-143.54;100.00;59916.91;5092875;28;20027;-83
2023/12/18 10:45:54;;;;;;;36.65;17.30;;;;;;;-143.54;100.00;59916.91;5098540;28;20030;-83
2023/12/18 10:48:20;;;;;;;30.08;16.42;;;;;;;-143.54;100.00;59916.91;5094665;28;20072;-83